Time;durP1;ratioP1;P1;durP2;ratioP2;P2;SDS_P1;SDS_P2;PMS_P1;PMS_P2;Temp;Humidity;BMP_temperature;BMP_pressure;BME280_temperature;BME280_humidity;BME280_pressure;Samples;Min_cycle;Max_cycle;Signal;HPM_P1;HPM_P2
2022/08/01 00:01:53;;;;;;;7.88;6.28;;;;;;;;;;4995490;28;94249;-71
2022/08/01 00:04:20;;;;;;;9.88;6.50;;;;;;;;;;4995893;28;93433;-71
2022/08/01 00:06:46;;;;;;;7.70;5.88;;;;;;;;;;4995325;28;92451;-70
2022/08/01 00:09:12;;;;;;;7.22;6.03;;;;;;;;;;4998957;28;93411;-71
2022/08/01 00:11:50;;;;;;;15.65;6.07;;;;;;;;;;4995864;28;91719;-71
2022/08/01 00:14:25;;;;;;;9.98;6.07;;;;;;;;;;4995535;28;92848;-71
2022/08/01 00:16:58;;;;;;;13.27;7.28;;;;;;;;;;4995694;28;94734;-71
2022/08/01 00:19:32;;;;;;;7.22;6.53;;;;;;;;;;4994078;28;94870;-70
2022/08/01 00:21:58;;;;;;;6.63;6.03;;;;;;;;;;4994490;28;96485;-71
2022/08/01 00:24:25;;;;;;;8.70;6.05;;;;;;;;;;4995369;28;94128;-70
2022/08/01 00:26:51;;;;;;;8.20;5.68;;;;;;;;;;4994927;28;92502;-71
2022/08/01 00:29:17;;;;;;;7.68;6.57;;;;;;;;;;4994292;28;94224;-71
2022/08/01 00:32:04;;;;;;;7.85;5.90;;;;;;;;;;4997999;28;93255;-71
2022/08/01 00:34:31;;;;;;;11.18;6.72;;;;;;;;;;4995107;28;92843;-70
2022/08/01 00:36:57;;;;;;;6.75;6.15;;;;;;;;;;4995238;28;93510;-71
2022/08/01 00:39:23;;;;;;;6.20;5.60;;;;;;;;;;4995568;28;92487;-71
2022/08/01 00:41:50;;;;;;;8.07;6.55;;;;;;;;;;4995142;28;93865;-70
2022/08/01 00:44:25;;;;;;;8.38;5.85;;;;;;;;;;4993802;28;95762;-70
2022/08/01 00:46:51;;;;;;;8.45;5.80;;;;;;;;;;4996840;27;93003;-71
2022/08/01 00:49:17;;;;;;;11.32;6.80;;;;;;;;;;4993909;28;93107;-71
2022/08/01 00:51:44;;;;;;;6.95;6.00;;;;;;;;;;4994596;28;93374;-71
2022/08/01 00:54:10;;;;;;;8.85;6.13;;;;;;;;;;4998674;28;92501;-71
2022/08/01 00:56:38;;;;;;;10.13;6.13;;;;;;;;;;4994183;28;93933;-71
2022/08/01 00:59:05;;;;;;;10.75;6.45;;;;;;;;;;4995299;28;92414;-71
2022/08/01 01:01:31;;;;;;;10.50;6.97;;;;;;;;;;4995430;28;94128;-70
2022/08/01 01:04:05;;;;;;;13.23;6.88;;;;;;;;;;4994328;28;93122;-70
2022/08/01 01:06:40;;;;;;;10.57;7.00;;;;;;;;;;4995329;28;92606;-71
2022/08/01 01:09:24;;;;;;;8.55;7.60;;;;;;;;;;4993728;28;94742;-71
2022/08/01 01:11:57;;;;;;;7.57;6.82;;;;;;;;;;4996767;28;93324;-70
2022/08/01 01:14:23;;;;;;;;;;;;;;;;;;4998959;28;92441;-70
2022/08/01 01:16:50;;;;;;;8.73;7.07;;;;;;;;;;5000609;28;123144;-70
2022/08/01 01:19:21;;;;;;;10.85;7.75;;;;;;;;;;4998153;28;92495;-70
2022/08/01 01:22:17;;;;;;;9.52;7.22;;;;;;;;;;4997451;28;93229;-70
2022/08/01 01:24:50;;;;;;;18.40;8.32;;;;;;;;;;4997459;28;93333;-70
2022/08/01 01:27:36;;;;;;;13.10;7.80;;;;;;;;;;4999321;28;91855;-70
2022/08/01 01:30:02;;;;;;;10.57;7.75;;;;;;;;;;4998524;28;92296;-70
2022/08/01 01:32:33;;;;;;;12.00;7.78;;;;;;;;;;4996989;28;93536;-70
2022/08/01 01:35:01;;;;;;;11.68;7.97;;;;;;;;;;4996055;28;94764;-70
2022/08/01 01:37:29;;;;;;;14.68;8.35;;;;;;;;;;5000709;28;95522;-70
2022/08/01 01:39:56;;;;;;;10.73;7.82;;;;;;;;;;4997079;28;92392;-70
2022/08/01 01:42:25;;;;;;;10.98;8.25;;;;;;;;;;4998510;28;93424;-70
2022/08/01 01:44:52;;;;;;;14.52;8.05;;;;;;;;;;4997362;28;93301;-70
2022/08/01 01:47:18;;;;;;;12.32;8.80;;;;;;;;;;4998304;28;92871;-70
2022/08/01 01:49:47;;;;;;;12.50;8.88;;;;;;;;;;4997528;28;94478;-70
2022/08/01 01:52:15;;;;;;;15.90;9.02;;;;;;;;;;4997663;28;92901;-70
2022/08/01 01:54:49;;;;;;;13.50;8.55;;;;;;;;;;4997912;28;92459;-70
2022/08/01 01:57:16;;;;;;;21.00;9.13;;;;;;;;;;4998566;28;93476;-70
2022/08/01 01:59:44;;;;;;;11.43;8.30;;;;;;;;;;4997032;28;96751;-70
2022/08/01 02:02:11;;;;;;;11.85;8.55;;;;;;;;;;4997212;28;95669;-70
2022/08/01 02:04:42;;;;;;;10.93;8.35;;;;;;;;;;4997504;28;94293;-70
2022/08/01 02:07:09;;;;;;;14.40;9.50;;;;;;;;;;4997135;28;92387;-70
2022/08/01 02:09:37;;;;;;;13.85;8.77;;;;;;;;;;4997204;28;94020;-70
2022/08/01 02:12:04;;;;;;;13.27;8.50;;;;;;;;;;4997663;28;92373;-70
2022/08/01 02:14:35;;;;;;;11.63;8.48;;;;;;;;;;4997436;28;92920;-70
2022/08/01 02:17:03;;;;;;;15.43;9.10;;;;;;;;;;4998524;28;93190;-70
2022/08/01 02:19:30;;;;;;;13.18;9.13;;;;;;;;;;4997598;28;93240;-70
2022/08/01 02:22:04;;;;;;;10.57;8.25;;;;;;;;;;4998608;28;92465;-70
2022/08/01 02:24:36;;;;;;;11.90;8.68;;;;;;;;;;4995252;28;95689;-70
2022/08/01 02:27:08;;;;;;;13.63;9.00;;;;;;;;;;4997123;28;92482;-70
2022/08/01 02:29:41;;;;;;;12.18;8.23;;;;;;;;;;4997107;28;93202;-71
2022/08/01 02:32:09;;;;;;;16.33;9.95;;;;;;;;;;4997409;28;92390;-70
2022/08/01 02:34:35;;;;;;;14.80;9.88;;;;;;;;;;4996292;28;92487;-70
2022/08/01 02:37:02;;;;;;;14.45;9.77;;;;;;;;;;4997334;28;93027;-69
2022/08/01 02:39:29;;;;;;;16.67;10.48;;;;;;;;;;4996325;28;93361;-69
2022/08/01 02:41:58;;;;;;;19.15;11.07;;;;;;;;;;4995765;28;91690;-69
2022/08/01 02:44:28;;;;;;;16.17;10.05;;;;;;;;;;4999632;28;93588;-70
2022/08/01 02:46:57;;;;;;;14.73;9.15;;;;;;;;;;4996352;28;92400;-70
2022/08/01 02:49:25;;;;;;;15.00;9.52;;;;;;;;;;4993745;28;95297;-70
2022/08/01 02:51:54;;;;;;;14.90;9.73;;;;;;;;;;4996265;28;93369;-70
2022/08/01 02:54:21;;;;;;;14.35;10.38;;;;;;;;;;4996665;28;92443;-70
2022/08/01 02:56:48;;;;;;;14.95;10.02;;;;;;;;;;4995198;28;93343;-70
2022/08/01 02:59:16;;;;;;;21.65;10.73;;;;;;;;;;4995841;28;94396;-70
2022/08/01 03:01:47;;;;;;;17.05;10.02;;;;;;;;;;4995858;28;92456;-70
2022/08/01 03:04:17;;;;;;;19.38;9.68;;;;;;;;;;4995231;28;92957;-70
2022/08/01 03:06:44;;;;;;;15.55;10.27;;;;;;;;;;4999806;28;92545;-70
2022/08/01 03:09:11;;;;;;;14.40;10.27;;;;;;;;;;4995929;28;92297;-70
2022/08/01 03:11:38;;;;;;;17.55;10.75;;;;;;;;;;4994789;28;93193;-70
2022/08/01 03:14:07;;;;;;;14.65;10.13;;;;;;;;;;4993913;28;95699;-70
2022/08/01 03:16:35;;;;;;;11.60;9.20;;;;;;;;;;4995210;28;94421;-70
2022/08/01 03:19:02;;;;;;;15.45;9.38;;;;;;;;;;4996450;28;94206;-70
2022/08/01 03:21:29;;;;;;;10.27;8.40;;;;;;;;;;4996858;28;92380;-70
2022/08/01 03:23:59;;;;;;;13.77;9.60;;;;;;;;;;4995136;28;93023;-71
2022/08/01 03:26:27;;;;;;;14.85;9.60;;;;;;;;;;4996038;28;93498;-70
2022/08/01 03:28:56;;;;;;;16.98;9.38;;;;;;;;;;4999091;28;92725;-69
2022/08/01 03:31:23;;;;;;;14.45;9.43;;;;;;;;;;4995850;28;92518;-69
2022/08/01 03:33:49;;;;;;;13.68;9.52;;;;;;;;;;4995268;28;92455;-69
2022/08/01 03:36:17;;;;;;;11.55;9.38;;;;;;;;;;4995999;28;92874;-70
2022/08/01 03:38:44;;;;;;;13.90;8.20;;;;;;;;;;4993271;28;95894;-70
2022/08/01 03:41:20;;;;;;;11.13;9.25;;;;;;;;;;4996102;28;92517;-70
2022/08/01 03:43:58;;;;;;;16.27;9.00;;;;;;;;;;4996319;28;92974;-70
2022/08/01 03:46:28;;;;;;;9.93;8.57;;;;;;;;;;4995224;28;93353;-70
2022/08/01 03:48:58;;;;;;;15.50;8.77;;;;;;;;;;4998501;28;92451;-69
2022/08/01 03:51:25;;;;;;;10.90;8.57;;;;;;;;;;4995871;28;93633;-70
2022/08/01 03:53:53;;;;;;;11.95;8.48;;;;;;;;;;4994894;28;92450;-69
2022/08/01 03:56:20;;;;;;;9.48;8.48;;;;;;;;;;4996143;28;93048;-69
2022/08/01 03:58:47;;;;;;;10.23;8.48;;;;;;;;;;4994738;28;93566;-70
2022/08/01 04:01:15;;;;;;;11.23;8.63;;;;;;;;;;4995532;28;92851;-70
2022/08/01 04:03:43;;;;;;;7.82;6.72;;;;;;;;;;4993989;28;94833;-69
2022/08/01 04:06:10;;;;;;;12.57;8.73;;;;;;;;;;4994388;28;92375;-69
2022/08/01 04:08:37;;;;;;;10.82;8.45;;;;;;;;;;4995506;28;92388;-69
2022/08/01 04:11:04;;;;;;;10.48;9.43;;;;;;;;;;4998270;28;94106;-70
2022/08/01 04:13:31;;;;;;;10.45;9.25;;;;;;;;;;4995031;28;92455;-70
2022/08/01 04:16:03;;;;;;;;;;;;;;;;;;4995794;28;92783;-69
2022/08/01 04:18:29;;;;;;;9.30;8.15;;;;;;;;;;4996029;28;124658;-69
2022/08/01 04:20:55;;;;;;;11.75;8.57;;;;;;;;;;4995392;28;91710;-70
2022/08/01 04:23:24;;;;;;;11.82;8.18;;;;;;;;;;4995156;28;93128;-69
2022/08/01 04:25:51;;;;;;;8.35;7.45;;;;;;;;;;4994943;28;93615;-70
2022/08/01 04:28:19;;;;;;;11.82;8.15;;;;;;;;;;4993447;28;95148;-70
2022/08/01 04:30:46;;;;;;;6.20;5.60;;;;;;;;;;4995199;28;95293;-70
2022/08/01 04:33:15;;;;;;;6.32;5.13;;;;;;;;;;4998429;28;94271;-70
2022/08/01 04:35:45;;;;;;;5.13;3.05;;;;;;;;;;4994322;28;93280;-70
2022/08/01 04:38:31;;;;;;;3.67;3.38;;;;;;;;;;4994887;28;92404;-70
2022/08/01 04:40:58;;;;;;;3.05;2.85;;;;;;;;;;4994876;28;92505;-70
2022/08/01 04:43:34;;;;;;;2.63;2.00;;;;;;;;;;4995489;28;93107;-70
2022/08/01 04:46:03;;;;;;;1.92;1.83;;;;;;;;;;4997411;28;92855;-70
2022/08/01 04:48:31;;;;;;;2.30;2.10;;;;;;;;;;4997676;28;92520;-70
2022/08/01 04:50:57;;;;;;;2.28;2.10;;;;;;;;;;4998361;28;93262;-70
2022/08/01 04:53:25;;;;;;;2.60;1.80;;;;;;;;;;4996614;28;97319;-69
2022/08/01 04:55:52;;;;;;;1.90;1.80;;;;;;;;;;5000397;28;92477;-69
2022/08/01 04:58:18;;;;;;;2.20;2.00;;;;;;;;;;4998501;28;93319;-70
2022/08/01 05:00:45;;;;;;;2.72;1.85;;;;;;;;;;4999354;27;92429;-70
2022/08/01 05:03:11;;;;;;;2.85;2.15;;;;;;;;;;4997395;28;93739;-70
2022/08/01 05:05:38;;;;;;;1.90;1.80;;;;;;;;;;4998113;28;93307;-70
2022/08/01 05:08:05;;;;;;;2.17;2.08;;;;;;;;;;4998261;28;92859;-70
2022/08/01 05:10:32;;;;;;;1.92;1.80;;;;;;;;;;4997736;28;93180;-70
2022/08/01 05:12:58;;;;;;;2.65;1.60;;;;;;;;;;4998035;28;93402;-69
2022/08/01 05:15:25;;;;;;;2.15;2.03;;;;;;;;;;4998079;28;93133;-70
2022/08/01 05:17:51;;;;;;;4.95;2.20;;;;;;;;;;4998737;28;94874;-70
2022/08/01 05:20:18;;;;;;;2.30;2.13;;;;;;;;;;4998527;28;92499;-70
2022/08/01 05:22:44;;;;;;;3.90;2.22;;;;;;;;;;4997896;28;93231;-70
2022/08/01 05:25:10;;;;;;;2.10;2.00;;;;;;;;;;4997080;28;93559;-70
2022/08/01 05:27:40;;;;;;;4.15;2.20;;;;;;;;;;4998053;28;92441;-70
2022/08/01 05:30:08;;;;;;;3.47;2.30;;;;;;;;;;4998666;27;92386;-71
2022/08/01 05:32:34;;;;;;;2.60;2.40;;;;;;;;;;4997950;28;93440;-70
2022/08/01 05:35:02;;;;;;;2.67;2.47;;;;;;;;;;4998239;28;91733;-71
2022/08/01 05:37:28;;;;;;;3.42;2.45;;;;;;;;;;5000523;28;92994;-71
2022/08/01 05:39:54;;;;;;;4.25;2.45;;;;;;;;;;4997524;28;92425;-71
2022/08/01 05:42:21;;;;;;;4.30;2.70;;;;;;;;;;4996037;28;94910;-71
2022/08/01 05:44:47;;;;;;;4.50;2.70;;;;;;;;;;4996435;28;93447;-71
2022/08/01 05:47:14;;;;;;;3.28;2.28;;;;;;;;;;4998184;28;92363;-71
2022/08/01 05:49:40;;;;;;;2.65;2.53;;;;;;;;;;4997322;28;93929;-71
2022/08/01 05:52:06;;;;;;;4.43;2.63;;;;;;;;;;4996740;28;93235;-71
2022/08/01 05:54:33;;;;;;;6.75;2.78;;;;;;;;;;4998254;28;92435;-71
2022/08/01 05:57:01;;;;;;;2.90;2.70;;;;;;;;;;4997869;28;93935;-71
2022/08/01 05:59:28;;;;;;;2.72;2.53;;;;;;;;;;4999976;28;92462;-72
2022/08/01 06:01:54;;;;;;;3.38;2.42;;;;;;;;;;4997830;28;92421;-71
2022/08/01 06:04:21;;;;;;;2.95;2.20;;;;;;;;;;4997480;28;93303;-71
2022/08/01 06:06:47;;;;;;;2.33;2.13;;;;;;;;;;4995095;28;94840;-71
2022/08/01 06:09:14;;;;;;;4.80;2.50;;;;;;;;;;4997423;28;95307;-70
2022/08/01 06:11:41;;;;;;;2.90;2.53;;;;;;;;;;4996726;28;94061;-71
2022/08/01 06:14:07;;;;;;;4.47;2.92;;;;;;;;;;4996356;28;92405;-71
2022/08/01 06:16:34;;;;;;;3.60;2.85;;;;;;;;;;4997436;28;92922;-71
2022/08/01 06:19:00;;;;;;;3.60;2.63;;;;;;;;;;4997207;28;93388;-71
2022/08/01 06:21:27;;;;;;;3.95;2.67;;;;;;;;;;4999206;28;92500;-70
2022/08/01 06:23:53;;;;;;;4.15;2.75;;;;;;;;;;4997339;28;93553;-70
2022/08/01 06:26:20;;;;;;;4.10;3.35;;;;;;;;;;4996424;28;92427;-71
2022/08/01 06:28:46;;;;;;;5.10;3.10;;;;;;;;;;4998034;27;93007;-70
2022/08/01 06:31:13;;;;;;;3.65;2.67;;;;;;;;;;4994411;28;96127;-71
2022/08/01 06:33:40;;;;;;;5.32;2.80;;;;;;;;;;4996285;28;92440;-70
2022/08/01 06:36:06;;;;;;;3.70;3.25;;;;;;;;;;4997099;28;93094;-71
2022/08/01 06:38:32;;;;;;;5.30;3.35;;;;;;;;;;4996778;28;93423;-70
2022/08/01 06:40:59;;;;;;;5.70;3.78;;;;;;;;;;4995796;28;92495;-71
2022/08/01 06:43:25;;;;;;;5.05;3.88;;;;;;;;;;4999983;28;93044;-72
2022/08/01 06:45:53;;;;;;;4.78;3.55;;;;;;;;;;4996790;28;92435;-71
2022/08/01 06:48:19;;;;;;;3.95;3.63;;;;;;;;;;4996284;28;93094;-71
2022/08/01 06:50:45;;;;;;;6.00;4.00;;;;;;;;;;4995957;28;93305;-72
2022/08/01 06:53:12;;;;;;;5.72;3.85;;;;;;;;;;4996851;28;92516;-72
2022/08/01 06:55:38;;;;;;;6.20;3.28;;;;;;;;;;4994427;28;95410;-72
2022/08/01 06:58:05;;;;;;;10.38;3.20;;;;;;;;;;4997267;28;93610;-72
2022/08/01 07:00:31;;;;;;;5.50;3.67;;;;;;;;;;4997357;28;93329;-72
2022/08/01 07:02:59;;;;;;;4.78;3.28;;;;;;;;;;4994426;28;92978;-72
2022/08/01 07:05:25;;;;;;;4.57;3.45;;;;;;;;;;5000276;28;93367;-72
2022/08/01 07:07:52;;;;;;;5.80;3.70;;;;;;;;;;4995965;28;93179;-71
2022/08/01 07:10:18;;;;;;;9.15;3.95;;;;;;;;;;4995352;28;93591;-72
2022/08/01 07:12:45;;;;;;;6.78;4.25;;;;;;;;;;4997151;28;91567;-72
2022/08/01 07:15:11;;;;;;;5.50;3.72;;;;;;;;;;4997028;28;92765;-72
2022/08/01 07:17:38;;;;;;;8.70;4.70;;;;;;;;;;4994943;28;92786;-72
2022/08/01 07:20:06;;;;;;;7.00;3.95;;;;;;;;;;4995013;28;96092;-72
2022/08/01 07:22:35;;;;;;;4.40;4.00;;;;;;;;;;4995451;28;96226;-72
2022/08/01 07:25:03;;;;;;;4.80;4.40;;;;;;;;;;4996241;28;94485;-72
2022/08/01 07:27:30;;;;;;;5.93;4.05;;;;;;;;;;4999796;28;92629;-72
2022/08/01 07:29:56;;;;;;;4.40;3.53;;;;;;;;;;4995018;28;93716;-72
2022/08/01 07:32:23;;;;;;;10.20;4.15;;;;;;;;;;4996331;28;93076;-71
2022/08/01 07:34:49;;;;;;;14.70;5.13;;;;;;;;;;4995986;28;94035;-71
2022/08/01 07:37:16;;;;;;;11.38;3.83;;;;;;;;;;4996028;28;93258;-71
2022/08/01 07:40:04;;;;;;;6.93;3.95;;;;;;;;;;4996229;28;92378;-72
2022/08/01 07:42:30;;;;;;;9.27;4.15;;;;;;;;;;4996266;28;94021;-72
2022/08/01 07:44:57;;;;;;;19.48;4.32;;;;;;;;;;4993449;28;95509;-72
2022/08/01 07:47:24;;;;;;;16.15;4.78;;;;;;;;;;4999392;28;92493;-72
2022/08/01 07:49:51;;;;;;;17.63;4.05;;;;;;;;;;4995381;28;94259;-71
2022/08/01 07:52:17;;;;;;;18.75;3.92;;;;;;;;;;4995704;28;92418;-71
2022/08/01 07:54:44;;;;;;;21.13;4.43;;;;;;;;;;4995731;28;93308;-71
2022/08/01 07:57:17;;;;;;;23.23;4.03;;;;;;;;;;4995826;28;92401;-72
2022/08/01 07:59:45;;;;;;;21.35;5.50;;;;;;;;;;4994666;28;92519;-72
2022/08/01 08:02:11;;;;;;;18.90;4.35;;;;;;;;;;4996864;28;93204;-72
2022/08/01 08:04:38;;;;;;;17.55;4.32;;;;;;;;;;4995140;28;94094;-72
2022/08/01 08:07:04;;;;;;;17.67;3.80;;;;;;;;;;4995353;28;92386;-71
2022/08/01 08:09:31;;;;;;;21.52;5.30;;;;;;;;;;4997196;28;94729;-72
2022/08/01 08:12:03;;;;;;;20.35;4.60;;;;;;;;;;4995575;28;92366;-71
2022/08/01 08:14:30;;;;;;;14.88;3.95;;;;;;;;;;4996024;28;93661;-72
2022/08/01 08:16:58;;;;;;;20.42;3.97;;;;;;;;;;4994875;28;94137;-72
2022/08/01 08:19:27;;;;;;;21.38;5.20;;;;;;;;;;4995351;28;92476;-72
2022/08/01 08:22:04;;;;;;;13.95;4.57;;;;;;;;;;4995584;28;92955;-72
2022/08/01 08:24:31;;;;;;;13.77;3.72;;;;;;;;;;4996017;28;93214;-71
2022/08/01 08:26:59;;;;;;;13.00;3.45;;;;;;;;;;4995133;28;91760;-72
2022/08/01 08:29:26;;;;;;;17.23;3.40;;;;;;;;;;4995853;28;92442;-72
2022/08/01 08:31:54;;;;;;;13.85;4.00;;;;;;;;;;4998158;28;93159;-72
2022/08/01 08:34:22;;;;;;;12.93;3.65;;;;;;;;;;4993749;28;94840;-72
2022/08/01 08:36:49;;;;;;;10.43;3.33;;;;;;;;;;4995212;28;93474;-72
2022/08/01 08:39:15;;;;;;;15.57;3.47;;;;;;;;;;4996172;28;92432;-71
2022/08/01 08:41:45;;;;;;;11.00;3.00;;;;;;;;;;4994446;28;92931;-71
2022/08/01 08:44:15;;;;;;;8.48;2.85;;;;;;;;;;4995659;28;92421;-72
2022/08/01 08:46:43;;;;;;;11.68;3.22;;;;;;;;;;4995506;28;92637;-72
2022/08/01 08:49:10;;;;;;;7.68;2.67;;;;;;;;;;4994420;28;93084;-72
2022/08/01 08:51:38;;;;;;;7.93;2.78;;;;;;;;;;4995895;28;91677;-72
2022/08/01 08:54:05;;;;;;;8.93;2.80;;;;;;;;;;4998436;28;93695;-72
2022/08/01 08:56:34;;;;;;;7.97;2.55;;;;;;;;;;4995322;28;93553;-72
2022/08/01 08:59:01;;;;;;;12.85;3.25;;;;;;;;;;4994083;28;94845;-72
2022/08/01 09:01:27;;;;;;;7.60;2.60;;;;;;;;;;4994830;28;95859;-71
2022/08/01 09:03:54;;;;;;;9.45;2.58;;;;;;;;;;4994339;28;94374;-72
2022/08/01 09:06:20;;;;;;;9.68;2.28;;;;;;;;;;4995630;28;93392;-72
2022/08/01 09:08:46;;;;;;;11.90;2.85;;;;;;;;;;4994562;28;93824;-72
2022/08/01 09:11:13;;;;;;;9.38;2.42;;;;;;;;;;4995456;27;93583;-72
2022/08/01 09:14:08;;;;;;;4.18;2.22;;;;;;;;;;4995279;28;92378;-72
2022/08/01 09:16:35;;;;;;;7.85;2.70;;;;;;;;;;4997990;28;91791;-72
2022/08/01 09:19:09;;;;;;;9.57;2.30;;;;;;;;;;4995390;28;92418;-72
2022/08/01 09:21:58;;;;;;;12.30;2.90;;;;;;;;;;4994901;28;93966;-72
2022/08/01 09:24:26;;;;;;;9.23;2.30;;;;;;;;;;4992053;28;94866;-72
2022/08/01 09:26:56;;;;;;;12.73;3.08;;;;;;;;;;4995102;28;92437;-72
2022/08/01 09:29:24;;;;;;;16.27;2.55;;;;;;;;;;4994246;28;93914;-72
2022/08/01 09:32:06;;;;;;;14.25;3.28;;;;;;;;;;4996658;28;92335;-72
2022/08/01 09:34:39;;;;;;;14.05;3.33;;;;;;;;;;4998297;28;92450;-72
2022/08/01 09:37:06;;;;;;;6.45;2.10;;;;;;;;;;4997914;28;93252;-72
2022/08/01 09:39:36;;;;;;;10.45;2.60;;;;;;;;;;5001041;28;94285;-72
2022/08/01 09:42:23;;;;;;;10.13;2.60;;;;;;;;;;4998648;28;92887;-72
2022/08/01 09:44:55;;;;;;;6.35;1.60;;;;;;;;;;4996826;28;92273;-72
2022/08/01 09:47:21;;;;;;;7.88;2.20;;;;;;;;;;4998069;28;92452;-72
2022/08/01 09:49:55;;;;;;;7.03;2.15;;;;;;;;;;4995777;28;94752;-72
2022/08/01 09:52:22;;;;;;;;;;;;;;;;;;4997625;28;94304;-72
2022/08/01 09:55:03;;;;;;;6.65;2.03;;;;;;;;;;4999178;28;92645;-71
2022/08/01 09:57:32;;;;;;;6.63;1.83;;;;;;;;;;4996729;28;93817;-72
2022/08/01 09:59:59;;;;;;;5.60;1.63;;;;;;;;;;5000462;28;92365;-72
2022/08/01 10:02:39;;;;;;;6.70;1.80;;;;;;;;;;4996764;28;92391;-72
2022/08/01 10:05:07;;;;;;;9.30;1.60;;;;;;;;;;4996737;28;93406;-72
2022/08/01 10:07:53;;;;;;;5.28;1.90;;;;;;;;;;4998094;28;91693;-71
2022/08/01 10:10:23;;;;;;;7.97;1.83;;;;;;;;;;4998172;28;92447;-72
2022/08/01 10:12:57;;;;;;;6.95;1.92;;;;;;;;;;4996832;28;94343;-72
2022/08/01 10:15:25;;;;;;;11.55;2.10;;;;;;;;;;4995802;28;94781;-71
2022/08/01 10:18:04;;;;;;;7.53;2.25;;;;;;;;;;4997556;28;95287;-72
2022/08/01 10:20:41;;;;;;;8.27;2.28;;;;;;;;;;4995028;28;93218;-72
2022/08/01 10:23:09;;;;;;;5.88;2.30;;;;;;;;;;4997065;28;93056;-73
2022/08/01 10:25:40;;;;;;;10.50;2.20;;;;;;;;;;4995106;28;94568;-75
2022/08/01 10:28:18;;;;;;;6.53;1.80;;;;;;;;;;4992492;28;92444;-75
2022/08/01 10:30:49;;;;;;;5.15;2.00;;;;;;;;;;4982866;28;93354;-75
2022/08/01 10:33:21;;;;;;;4.75;1.67;;;;;;;;;;4986743;28;93659;-75
2022/08/01 10:36:08;;;;;;;4.80;1.75;;;;;;;;;;4977340;28;92336;-72
2022/08/01 10:38:35;;;;;;;5.75;2.22;;;;;;;;;;4990924;28;92920;-75
2022/08/01 10:41:04;;;;;;;6.45;1.75;;;;;;;;;;4993370;28;94982;-74
2022/08/01 10:43:32;;;;;;;11.07;2.58;;;;;;;;;;4981621;28;94237;-74
2022/08/01 10:46:01;;;;;;;6.15;2.80;;;;;;;;;;4989775;28;94095;-74
2022/08/01 10:48:32;;;;;;;9.25;2.55;;;;;;;;;;4989857;28;92592;-73
2022/08/01 10:51:02;;;;;;;11.88;2.58;;;;;;;;;;4981769;28;92987;-74
2022/08/01 10:53:29;;;;;;;7.15;2.38;;;;;;;;;;4985815;27;93082;-75
2022/08/01 10:56:09;;;;;;;7.25;2.55;;;;;;;;;;4992112;28;94674;-72
2022/08/01 10:58:41;;;;;;;7.05;2.10;;;;;;;;;;5000058;28;93241;-72
2022/08/01 11:01:12;;;;;;;9.25;2.50;;;;;;;;;;4984341;28;93342;-72
2022/08/01 11:03:39;;;;;;;6.53;2.30;;;;;;;;;;4980114;28;95140;-75
2022/08/01 11:06:34;;;;;;;9.68;2.90;;;;;;;;;;4978068;28;95346;-72
2022/08/01 11:09:03;;;;;;;10.18;2.72;;;;;;;;;;4988642;28;94607;-72
2022/08/01 11:11:31;;;;;;;12.00;3.75;;;;;;;;;;4982812;28;94237;-71
2022/08/01 11:14:09;;;;;;;12.70;3.08;;;;;;;;;;4975491;28;94499;-70
2022/08/01 11:16:36;;;;;;;12.38;3.60;;;;;;;;;;4978723;28;92551;-68
2022/08/01 11:19:04;;;;;;;13.77;3.05;;;;;;;;;;4988172;28;93305;-69
2022/08/01 11:21:49;;;;;;;10.30;2.55;;;;;;;;;;4980925;28;94246;-70
2022/08/01 11:24:43;;;;;;;12.15;3.00;;;;;;;;;;4985960;28;92440;-70
2022/08/01 11:27:19;;;;;;;7.78;2.28;;;;;;;;;;4988830;28;92888;-69
2022/08/01 11:30:07;;;;;;;8.70;2.05;;;;;;;;;;4985468;28;94087;-69
2022/08/01 11:32:48;;;;;;;5.38;2.08;;;;;;;;;;4988507;28;95867;-69
2022/08/01 11:35:35;;;;;;;6.55;2.35;;;;;;;;;;4977896;28;93524;-68
2022/08/01 11:38:21;;;;;;;5.82;2.30;;;;;;;;;;4977011;28;92612;-69
2022/08/01 11:41:07;;;;;;;5.78;2.63;;;;;;;;;;4980600;28;93509;-68
2022/08/01 11:43:33;;;;;;;7.72;2.00;;;;;;;;;;4982030;28;93775;-69
2022/08/01 11:46:01;;;;;;;13.52;2.40;;;;;;;;;;4975091;28;94650;-69
2022/08/01 11:48:28;;;;;;;4.95;1.92;;;;;;;;;;4976157;28;93224;-69
2022/08/01 11:50:56;;;;;;;16.65;2.47;;;;;;;;;;4980760;28;93794;-69
2022/08/01 11:53:22;;;;;;;5.22;2.85;;;;;;;;;;4978884;28;94213;-69
2022/08/01 11:55:53;;;;;;;4.60;2.10;;;;;;;;;;4980035;28;93103;-69
2022/08/01 11:58:23;;;;;;;6.10;2.58;;;;;;;;;;4977646;28;95800;-69
2022/08/01 12:00:57;;;;;;;6.68;2.00;;;;;;;;;;4980966;28;95378;-69
2022/08/01 12:03:31;;;;;;;7.35;2.42;;;;;;;;;;4978385;28;93679;-69
2022/08/01 12:05:59;;;;;;;10.57;2.10;;;;;;;;;;4979206;28;93274;-69
2022/08/01 12:08:26;;;;;;;3.58;1.30;;;;;;;;;;4977378;28;92485;-68
2022/08/01 12:10:52;;;;;;;4.78;1.83;;;;;;;;;;4976578;28;93355;-69
2022/08/01 12:13:37;;;;;;;10.88;2.00;;;;;;;;;;4976876;28;92554;-69
2022/08/01 12:16:08;;;;;;;4.45;1.50;;;;;;;;;;4981050;28;94553;-69
2022/08/01 12:18:39;;;;;;;6.68;1.98;;;;;;;;;;4977521;28;93708;-69
2022/08/01 12:21:05;;;;;;;7.85;2.47;;;;;;;;;;4976808;28;94050;-68
2022/08/01 12:23:31;;;;;;;5.22;1.88;;;;;;;;;;4973653;28;96659;-69
2022/08/01 12:25:58;;;;;;;6.30;1.63;;;;;;;;;;4982385;28;93441;-68
2022/08/01 12:28:24;;;;;;;8.73;1.60;;;;;;;;;;4979268;28;94009;-69
2022/08/01 12:30:51;;;;;;;5.97;1.30;;;;;;;;;;4979371;28;94139;-69
2022/08/01 12:33:20;;;;;;;4.07;1.73;;;;;;;;;;4978248;28;93796;-69
2022/08/01 12:35:47;;;;;;;2.97;1.40;;;;;;;;;;4976967;28;93191;-69
2022/08/01 12:38:14;;;;;;;5.05;1.60;;;;;;;;;;4982412;28;93379;-69
2022/08/01 12:40:42;;;;;;;4.05;1.58;;;;;;;;;;4976273;28;95436;-68
2022/08/01 12:43:17;;;;;;;4.47;1.33;;;;;;;;;;4983560;28;93129;-69
2022/08/01 12:45:55;;;;;;;2.75;1.10;;;;;;;;;;4993744;28;92590;-70
2022/08/01 12:48:25;;;;;;;4.50;1.60;;;;;;;;;;4991947;28;94778;-71
2022/08/01 12:50:52;;;;;;;5.32;1.52;;;;;;;;;;4981150;28;94565;-70
2022/08/01 12:53:19;;;;;;;2.58;1.27;;;;;;;;;;4976822;28;92674;-72
2022/08/01 12:55:48;;;;;;;3.15;1.55;;;;;;;;;;4974920;28;92890;-73
2022/08/01 12:58:30;;;;;;;2.55;1.15;;;;;;;;;;4971699;28;94174;-68
2022/08/01 13:01:07;;;;;;;2.17;1.13;;;;;;;;;;4981532;28;93143;-68
2022/08/01 13:03:33;;;;;;;3.55;0.90;;;;;;;;;;4981499;28;94538;-69
2022/08/01 13:06:00;;;;;;;2.05;0.80;;;;;;;;;;4978476;28;93839;-68
2022/08/01 13:08:30;;;;;;;3.45;1.33;;;;;;;;;;4987064;28;93160;-69
2022/08/01 13:11:00;;;;;;;4.97;1.20;;;;;;;;;;4981668;28;94422;-69
2022/08/01 13:13:37;;;;;;;2.00;1.27;;;;;;;;;;4990137;28;94907;-69
2022/08/01 13:16:05;;;;;;;2.85;1.08;;;;;;;;;;4988446;28;95334;-70
2022/08/01 13:18:32;;;;;;;0.88;0.80;;;;;;;;;;4987810;27;93537;-69
2022/08/01 13:21:16;;;;;;;2.80;1.00;;;;;;;;;;4981254;28;94235;-69
2022/08/01 13:24:02;;;;;;;2.80;1.20;;;;;;;;;;4985219;28;93139;-69
2022/08/01 13:26:41;;;;;;;2.13;1.40;;;;;;;;;;4981158;28;92769;-69
2022/08/01 13:29:09;;;;;;;4.03;1.50;;;;;;;;;;4979287;28;94313;-69
2022/08/01 13:31:36;;;;;;;3.60;1.30;;;;;;;;;;4984681;28;92552;-69
2022/08/01 13:34:02;;;;;;;5.20;1.70;;;;;;;;;;4982223;28;94347;-69
2022/08/01 13:36:30;;;;;;;3.28;1.30;;;;;;;;;;4991305;28;92834;-69
2022/08/01 13:41:43;;;;;;;5.43;1.20;;;;;;;;;;4981550;28;94413;-70
2022/08/01 13:44:10;;;;;;;2.00;1.10;;;;;;;;;;4986504;28;93893;-72
2022/08/01 13:46:37;;;;;;;3.50;1.70;;;;;;;;;;5000336;28;93612;-70
2022/08/01 13:49:11;;;;;;;2.92;1.20;;;;;;;;;;4977011;28;93481;-70
2022/08/01 13:51:41;;;;;;;2.25;1.52;;;;;;;;;;4977385;28;93840;-70
2022/08/01 13:54:08;;;;;;;0.90;0.80;;;;;;;;;;4984584;28;92785;-70
2022/08/01 13:56:34;;;;;;;1.85;1.20;;;;;;;;;;4977622;28;92184;-70
2022/08/01 13:59:01;;;;;;;2.20;1.00;;;;;;;;;;4978260;28;93151;-70
2022/08/01 14:01:27;;;;;;;1.38;0.90;;;;;;;;;;4977781;28;92735;-70
2022/08/01 14:03:59;;;;;;;7.65;1.10;;;;;;;;;;4976457;28;94712;-70
2022/08/01 14:06:26;;;;;;;7.53;1.10;;;;;;;;;;5012415;28;93290;-73
2022/08/01 14:08:52;;;;;;;2.45;1.20;;;;;;;;;;5010671;28;92318;-72
2022/08/01 14:11:21;;;;;;;4.50;1.13;;;;;;;;;;4995797;28;93764;-73
2022/08/01 14:13:47;;;;;;;6.13;1.75;;;;;;;;;;4978601;28;92548;-72
2022/08/01 14:16:14;;;;;;;4.55;1.65;;;;;;;;;;4977702;28;94048;-71
2022/08/01 14:18:41;;;;;;;1.83;0.98;;;;;;;;;;4976247;28;93647;-71
2022/08/01 14:21:10;;;;;;;2.40;1.55;;;;;;;;;;4978435;28;91816;-71
2022/08/01 14:23:36;;;;;;;3.90;1.13;;;;;;;;;;4977187;28;92396;-71
2022/08/01 14:26:03;;;;;;;6.68;1.10;;;;;;;;;;4976552;28;94267;-71
2022/08/01 14:28:37;;;;;;;4.03;1.45;;;;;;;;;;4978554;28;94909;-71
2022/08/01 14:31:05;;;;;;;3.45;0.90;;;;;;;;;;4977585;28;93396;-71
2022/08/01 14:33:32;;;;;;;3.00;1.05;;;;;;;;;;4976726;28;92482;-71
2022/08/01 14:35:59;;;;;;;2.30;1.23;;;;;;;;;;4978187;28;92950;-71
2022/08/01 14:38:46;;;;;;;1.10;1.00;;;;;;;;;;4976416;28;93571;-70
2022/08/01 14:41:15;;;;;;;3.13;1.05;;;;;;;;;;4977637;28;92377;-71
2022/08/01 14:43:42;;;;;;;4.22;1.00;;;;;;;;;;4977242;28;94082;-72
2022/08/01 14:46:09;;;;;;;4.28;1.20;;;;;;;;;;4977890;28;92850;-72
2022/08/01 14:48:36;;;;;;;3.55;1.48;;;;;;;;;;4976120;28;92420;-72
2022/08/01 14:51:02;;;;;;;2.80;0.90;;;;;;;;;;4979904;28;93285;-72
2022/08/01 14:53:30;;;;;;;3.42;1.25;;;;;;;;;;4975303;28;94852;-72
2022/08/01 14:55:56;;;;;;;3.22;1.50;;;;;;;;;;4976785;28;96222;-72